Time,TemperatureF,DewpointF,PressureIn,WindDirection,WindDirectionDegrees,WindSpeedMPH,WindSpeedGustMPH,Humidity,HourlyPrecipIn,Conditions,Clouds,dailyrainin,SoftwareType,DateUTC
2013-05-14 00:02:00,43.4,30.0,30.09,NE,49,2.0,2.0,59,0.00,,,0.00,weatherlink.com 1.10,2013-05-14 04:02:00,
2013-05-14 00:17:00,43.0,29.0,30.09,NE,49,0.0,4.0,59,0.00,,,0.00,weatherlink.com 1.10,2013-05-14 04:17:00,
2013-05-14 00:33:00,43.1,29.0,30.09,NE,49,0.0,4.0,58,0.00,,,0.00,weatherlink.com 1.10,2013-05-14 04:33:00,
2013-05-14 00:48:00,42.8,29.0,30.09,NE,49,1.0,2.0,59,0.00,,,0.00,weatherlink.com 1.10,2013-05-14 04:48:00,
2013-05-14 01:03:00,42.3,30.0,30.09,NE,49,3.0,3.0,61,0.00,,,0.00,weatherlink.com 1.10,2013-05-14 05:03:00,
2013-05-14 01:18:00,42.4,30.0,30.09,NE,49,2.0,4.0,61,0.00,,,0.00,weatherlink.com 1.10,2013-05-14 05:18:00,
2013-05-14 01:33:00,42.3,30.0,30.09,NE,49,2.0,3.0,61,0.00,,,0.00,weatherlink.com 1.10,2013-05-14 05:33:00,
2013-05-14 01:48:00,42.3,30.0,30.09,NE,49,2.0,3.0,61,0.00,,,0.00,weatherlink.com 1.10,2013-05-14 05:48:00,
2013-05-14 02:03:00,42.2,29.0,30.09,NE,49,2.0,3.0,61,0.00,,,0.00,weatherlink.com 1.10,2013-05-14 06:03:00,
2013-05-14 02:19:00,42.0,29.0,30.09,NE,49,2.0,3.0,60,0.00,,,0.00,weatherlink.com 1.10,2013-05-14 06:19:00,
2013-05-14 02:33:00,42.3,29.0,30.09,NE,49,2.0,3.0,60,0.00,,,0.00,weatherlink.com 1.10,2013-05-14 06:33:00,
2013-05-14 02:48:00,42.4,29.0,30.09,NE,49,3.0,3.0,60,0.00,,,0.00,weatherlink.com 1.10,2013-05-14 06:48:00,
2013-05-14 03:03:00,42.5,29.0,30.09,NE,49,3.0,3.0,60,0.00,,,0.00,weatherlink.com 1.10,2013-05-14 07:03:00,
2013-05-14 03:18:00,42.5,30.0,30.09,NE,49,2.0,3.0,61,0.00,,,0.00,weatherlink.com 1.10,2013-05-14 07:18:00,
2013-05-14 03:33:00,42.5,30.0,30.09,NE,49,2.0,3.0,61,0.00,,,0.00,weatherlink.com 1.10,2013-05-14 07:33:00,
2013-05-14 03:48:00,42.4,30.0,30.09,NE,49,1.0,3.0,61,0.00,,,0.00,weatherlink.com 1.10,2013-05-14 07:48:00,
2013-05-14 04:03:00,42.1,30.0,30.09,NE,49,1.0,2.0,63,0.00,,,0.00,weatherlink.com 1.10,2013-05-14 08:03:00,
2013-05-14 04:18:00,42.0,30.0,30.09,NE,49,2.0,2.0,63,0.00,,,0.00,weatherlink.com 1.10,2013-05-14 08:18:00,
2013-05-14 04:33:00,42.0,31.0,30.09,NE,49,1.0,3.0,65,0.00,,,0.00,weatherlink.com 1.10,2013-05-14 08:33:00,
2013-05-14 04:48:00,42.0,31.0,30.09,NE,49,2.0,3.0,64,0.00,,,0.00,weatherlink.com 1.10,2013-05-14 08:48:00,
2013-05-14 05:03:00,42.1,30.0,30.09,NE,49,1.0,3.0,63,0.00,,,0.00,weatherlink.com 1.10,2013-05-14 09:03:00,
2013-05-14 05:18:00,42.2,30.0,30.09,NE,49,2.0,3.0,62,0.00,,,0.00,weatherlink.com 1.10,2013-05-14 09:18:00,
2013-05-14 05:33:00,42.2,31.0,30.10,NE,49,2.0,3.0,64,0.00,,,0.00,weatherlink.com 1.10,2013-05-14 09:33:00,
2013-05-14 05:48:00,42.2,30.0,30.10,NE,49,3.0,4.0,63,0.00,,,0.00,weatherlink.com 1.10,2013-05-14 09:48:00,
2013-05-14 06:03:00,42.3,30.0,30.10,NE,49,4.0,4.0,63,0.00,,,0.00,weatherlink.com 1.10,2013-05-14 10:03:00,
2013-05-14 06:18:00,42.4,30.0,30.10,NE,49,3.0,3.0,63,0.00,,,0.00,weatherlink.com 1.10,2013-05-14 10:18:00,
2013-05-14 06:33:00,42.4,30.0,30.10,NE,49,2.0,3.0,63,0.00,,,0.00,weatherlink.com 1.10,2013-05-14 10:33:00,
2013-05-14 06:48:00,42.6,30.0,30.11,NE,49,2.0,3.0,61,0.00,,,0.00,weatherlink.com 1.10,2013-05-14 10:48:00,
2013-05-14 07:03:00,42.9,30.0,30.11,NE,49,2.0,4.0,60,0.00,,,0.00,weatherlink.com 1.10,2013-05-14 11:03:00,
2013-05-14 07:18:00,43.3,30.0,30.12,NE,49,0.0,3.0,59,0.00,,,0.00,weatherlink.com 1.10,2013-05-14 11:18:00,
2013-05-14 07:33:00,43.5,30.0,30.12,NE,49,2.0,3.0,60,0.00,,,0.00,weatherlink.com 1.10,2013-05-14 11:33:00,
2013-05-14 07:48:00,44.1,30.0,30.12,NE,49,3.0,4.0,57,0.00,,,0.00,weatherlink.com 1.10,2013-05-14 11:48:00,
2013-05-14 08:03:00,44.5,30.0,30.13,NE,49,0.0,3.0,58,0.00,,,0.00,weatherlink.com 1.10,2013-05-14 12:03:00,
2013-05-14 08:18:00,44.6,30.0,30.12,NE,49,0.0,2.0,56,0.00,,,0.00,weatherlink.com 1.10,2013-05-14 12:18:00,
2013-05-14 08:33:00,45.7,30.0,30.12,ESE,109,1.0,4.0,54,0.00,,,0.00,weatherlink.com 1.10,2013-05-14 12:33:00,
2013-05-14 08:48:00,47.5,30.0,30.12,ENE,72,3.0,5.0,51,0.00,,,0.00,weatherlink.com 1.10,2013-05-14 12:48:00,
2013-05-14 09:03:00,49.1,26.0,30.12,NNE,30,0.0,9.0,40,0.00,,,0.00,weatherlink.com 1.10,2013-05-14 13:03:00,
2013-05-14 09:18:00,51.4,26.0,30.13,SSW,206,1.0,10.0,38,0.00,,,0.00,weatherlink.com 1.10,2013-05-14 13:18:00,
2013-05-14 09:33:00,53.6,28.0,30.12,ENE,64,1.0,4.0,37,0.00,,,0.00,weatherlink.com 1.10,2013-05-14 13:33:00,
2013-05-14 09:48:00,53.7,38.0,30.11,SW,219,1.0,2.0,55,0.00,,,0.00,weatherlink.com 1.10,2013-05-14 13:48:00,
2013-05-14 10:04:00,55.2,37.0,30.12,WSW,239,1.0,4.0,50,0.00,,,0.00,weatherlink.com 1.10,2013-05-14 14:04:00,
2013-05-14 10:19:00,55.2,36.0,30.12,SW,227,1.0,4.0,48,0.00,,,0.00,weatherlink.com 1.10,2013-05-14 14:19:00,
2013-05-14 10:34:00,55.4,35.0,30.12,South,181,0.0,5.0,47,0.00,,,0.00,weatherlink.com 1.10,2013-05-14 14:34:00,
2013-05-14 10:49:00,56.0,35.0,30.12,SW,217,3.0,4.0,46,0.00,,,0.00,weatherlink.com 1.10,2013-05-14 14:49:00,
2013-05-14 11:04:00,56.5,31.0,30.12,SW,229,3.0,5.0,38,0.00,,,0.00,weatherlink.com 1.10,2013-05-14 15:04:00,
2013-05-14 11:19:00,57.1,31.0,30.13,NE,55,2.0,4.0,38,0.00,,,0.00,weatherlink.com 1.10,2013-05-14 15:19:00,
2013-05-14 11:34:00,58.6,34.0,30.13,East,96,0.0,6.0,40,0.00,,,0.00,weatherlink.com 1.10,2013-05-14 15:34:00,
2013-05-14 11:49:00,59.6,36.0,30.13,WSW,241,5.0,7.0,42,0.00,,,0.00,weatherlink.com 1.10,2013-05-14 15:49:00,
2013-05-14 12:04:00,59.6,37.0,30.12,NE,34,2.0,7.0,43,0.00,,,0.00,weatherlink.com 1.10,2013-05-14 16:04:00,
2013-05-14 12:19:00,61.2,38.0,30.12,North,359,2.0,6.0,42,0.00,,,0.00,weatherlink.com 1.10,2013-05-14 16:19:00,
2013-05-14 12:34:00,60.7,38.0,30.12,WSW,257,4.0,8.0,43,0.00,,,0.00,weatherlink.com 1.10,2013-05-14 16:34:00,
2013-05-14 12:49:00,61.7,38.0,30.12,WSW,241,3.0,5.0,42,0.00,,,0.00,weatherlink.com 1.10,2013-05-14 16:49:00,
2013-05-14 13:04:00,62.1,38.0,30.11,SW,217,3.0,7.0,41,0.00,,,0.00,weatherlink.com 1.10,2013-05-14 17:04:00,
2013-05-14 13:19:00,63.3,38.0,30.11,SSW,195,3.0,5.0,40,0.00,,,0.00,weatherlink.com 1.10,2013-05-14 17:19:00,
2013-05-14 13:34:00,63.4,37.0,30.10,SW,235,3.0,8.0,38,0.00,,,0.00,weatherlink.com 1.10,2013-05-14 17:34:00,
2013-05-14 13:49:00,64.3,38.0,30.09,WSW,253,3.0,8.0,38,0.00,,,0.00,weatherlink.com 1.10,2013-05-14 17:49:00,
2013-05-14 14:04:00,65.2,39.0,30.09,SSW,206,1.0,7.0,38,0.00,,,0.00,weatherlink.com 1.10,2013-05-14 18:04:00,
2013-05-14 14:19:00,66.3,39.0,30.08,WSW,243,3.0,6.0,37,0.00,,,0.00,weatherlink.com 1.10,2013-05-14 18:19:00,
2013-05-14 14:34:00,67.2,41.0,30.08,SW,218,4.0,6.0,38,0.00,,,0.00,weatherlink.com 1.10,2013-05-14 18:34:00,
2013-05-14 14:49:00,68.0,41.0,30.07,SW,223,3.0,8.0,38,0.00,,,0.00,weatherlink.com 1.10,2013-05-14 18:49:00,
2013-05-14 15:04:00,68.8,43.0,30.07,South,182,4.0,6.0,40,0.00,,,0.00,weatherlink.com 1.10,2013-05-14 19:04:00,
2013-05-14 15:20:00,69.0,44.0,30.07,SSE,163,1.0,4.0,40,0.00,,,0.00,weatherlink.com 1.10,2013-05-14 19:20:00,
2013-05-14 15:35:00,68.9,43.0,30.06,South,176,3.0,8.0,40,0.00,,,0.00,weatherlink.com 1.10,2013-05-14 19:35:00,
2013-05-14 16:05:00,68.6,46.0,30.05,South,184,2.0,8.0,44,0.00,,,0.00,weatherlink.com 1.10,2013-05-14 20:05:00,
2013-05-14 16:20:00,69.4,45.0,30.05,South,180,2.0,8.0,42,0.00,,,0.00,weatherlink.com 1.10,2013-05-14 20:20:00,
2013-05-14 16:35:00,68.9,45.0,30.05,SSW,213,3.0,8.0,43,0.00,,,0.00,weatherlink.com 1.10,2013-05-14 20:35:00,
2013-05-14 16:50:00,68.7,45.0,30.05,SE,129,0.0,10.0,43,0.00,,,0.00,weatherlink.com 1.10,2013-05-14 20:50:00,
2013-05-14 17:05:00,69.3,46.0,30.06,WSW,238,1.0,5.0,44,0.00,,,0.00,weatherlink.com 1.10,2013-05-14 21:05:00,
2013-05-14 17:20:00,69.6,45.0,30.05,SW,215,2.0,4.0,42,0.00,,,0.00,weatherlink.com 1.10,2013-05-14 21:20:00,
2013-05-14 17:35:00,69.0,45.0,30.05,South,187,3.0,6.0,43,0.00,,,0.00,weatherlink.com 1.10,2013-05-14 21:35:00,
2013-05-14 17:50:00,68.4,46.0,30.05,West,275,3.0,8.0,44,0.00,,,0.00,weatherlink.com 1.10,2013-05-14 21:50:00,
2013-05-14 18:05:00,68.2,46.0,30.05,NE,51,5.0,6.0,45,0.00,,,0.00,weatherlink.com 1.10,2013-05-14 22:05:00,
2013-05-14 18:20:00,67.6,45.0,30.05,South,188,1.0,7.0,45,0.00,,,0.00,weatherlink.com 1.10,2013-05-14 22:20:00,
2013-05-14 18:35:00,67.3,45.0,30.05,SSE,164,2.0,3.0,44,0.00,,,0.00,weatherlink.com 1.10,2013-05-14 22:35:00,
2013-05-14 18:50:00,67.1,44.0,30.05,West,276,0.0,5.0,43,0.00,,,0.00,weatherlink.com 1.10,2013-05-14 22:50:00,
2013-05-14 19:05:00,66.8,43.0,30.05,South,182,3.0,5.0,42,0.00,,,0.00,weatherlink.com 1.10,2013-05-14 23:05:00,
2013-05-14 19:20:00,66.5,43.0,30.04,SE,134,0.0,4.0,43,0.00,,,0.00,weatherlink.com 1.10,2013-05-14 23:20:00,
2013-05-14 19:35:00,66.1,43.0,30.04,SSW,195,1.0,8.0,44,0.00,,,0.00,weatherlink.com 1.10,2013-05-14 23:35:00,
2013-05-14 19:50:00,65.4,43.0,30.05,SSE,163,2.0,6.0,45,0.00,,,0.00,weatherlink.com 1.10,2013-05-14 23:50:00,
2013-05-14 20:05:00,64.8,43.0,30.04,South,174,1.0,4.0,46,0.00,,,0.00,weatherlink.com 1.10,2013-05-15 00:05:00,
2013-05-14 20:20:00,64.4,44.0,30.04,ENE,61,3.0,4.0,48,0.00,,,0.00,weatherlink.com 1.10,2013-05-15 00:20:00,
2013-05-14 20:35:00,64.0,44.0,30.04,SSE,160,2.0,4.0,49,0.00,,,0.00,weatherlink.com 1.10,2013-05-15 00:35:00,
2013-05-14 20:50:00,63.7,45.0,30.04,East,84,6.0,6.0,50,0.00,,,0.00,weatherlink.com 1.10,2013-05-15 00:50:00,
2013-05-14 21:05:00,63.6,45.0,30.04,SE,125,0.0,5.0,51,0.00,,,0.00,weatherlink.com 1.10,2013-05-15 01:05:00,
2013-05-14 21:20:00,63.6,45.0,30.04,SE,146,3.0,7.0,51,0.00,,,0.00,weatherlink.com 1.10,2013-05-15 01:20:00,
2013-05-14 21:35:00,63.6,45.0,30.05,ENE,73,1.0,6.0,52,0.00,,,0.00,weatherlink.com 1.10,2013-05-15 01:35:00,
2013-05-14 21:50:00,63.4,45.0,30.05,SSE,160,1.0,7.0,52,0.00,,,0.00,weatherlink.com 1.10,2013-05-15 01:50:00,
2013-05-14 22:05:00,63.0,46.0,30.05,East,80,4.0,6.0,54,0.00,,,0.00,weatherlink.com 1.10,2013-05-15 02:05:00,
2013-05-14 22:20:00,62.9,46.0,30.05,NNE,30,1.0,7.0,55,0.00,,,0.00,weatherlink.com 1.10,2013-05-15 02:20:00,
2013-05-14 22:35:00,62.7,47.0,30.04,WSW,258,2.0,12.0,56,0.00,,,0.00,weatherlink.com 1.10,2013-05-15 02:35:00,
2013-05-14 22:50:00,62.4,47.0,30.05,ENE,75,4.0,6.0,57,0.00,,,0.00,weatherlink.com 1.10,2013-05-15 02:50:00,
2013-05-14 23:05:00,62.2,47.0,30.04,SSE,162,4.0,8.0,57,0.00,,,0.00,weatherlink.com 1.10,2013-05-15 03:05:00,
2013-05-14 23:20:00,62.2,47.0,30.04,ENE,77,0.0,6.0,58,0.00,,,0.00,weatherlink.com 1.10,2013-05-15 03:20:00,
2013-05-14 23:35:00,61.7,47.0,30.04,NE,56,2.0,7.0,59,0.00,,,0.00,weatherlink.com 1.10,2013-05-15 03:35:00,
2013-05-14 23:50:00,61.5,48.0,30.04,SW,233,2.0,7.0,61,0.00,,,0.00,weatherlink.com 1.10,2013-05-15 03:50:00,